Evening Mist — WBA7462 — position and weather

sailwx.info

Track history (hours):
 
Tides and Currents Weather Stations Pressure Air Temp Water Temp Dewpoint Dewpoint Depression Visibility Wind Speed Wind Dir Waves Ship Positions

Evening Mist

Owner: TUG EVENING MIST CORP, MELVILLE, NY. More information available from US FCC via Universal Licensing System and Coast Guard Vessel Documentation Center.

Last reported at 2017-Sep-19 20:30 UTC. Time now 2017-Sep-19 20:28 UTC.
Position N 40°39' W 074°02'.

Length 122 m; draft 15.5 m.

Type: Tow > 200 m length. MMSI: 367008230.

Date/timePositionNaut miles runAvg speedWind from/ knotsBaromVisibWave heightAir tempDewpointWater temp
2017-Sep-19 20:30N 40°39' W 074°02'0 0.0
2017-Sep-19 20:00N 40°39' W 074°02'0 0.0
2017-Sep-19 19:30N 40°39' W 074°02'0 0.0
2017-Sep-19 19:00N 40°40' W 074°02'0 0.0
2017-Sep-19 18:30N 40°40' W 074°02'0 0.0
2017-Sep-19 18:00N 40°39' W 074°02'0 0.0
2017-Sep-19 17:30N 40°39' W 074°02'0 0.0
2017-Sep-19 17:00N 40°39' W 074°02'0 0.0
2017-Sep-19 16:30N 40°39' W 074°02'0 0.0
2017-Sep-19 16:00N 40°40' W 074°02'0 0.0
2017-Sep-19 15:30N 40°40' W 074°02'2 4.0
2017-Sep-19 15:00N 40°39' W 074°05'4 8.0
2017-Sep-19 14:30N 40°39' W 074°10'2 3.8
2017-Sep-19 14:00N 40°38' W 074°12'0 0.0
2017-Sep-19 13:30N 40°38' W 074°12'0 0.5
2017-Sep-19 13:00N 40°38' W 074°12'3 6.6
2017-Sep-19 12:30N 40°39' W 074°08'1 1.2
2017-Sep-19 12:00N 40°39' W 074°07'0 0.0
2017-Sep-19 11:30N 40°39' W 074°07'0 0.0
2017-Sep-19 11:00N 40°39' W 074°07'0 0.0
2017-Sep-19 10:30N 40°39' W 074°07'0 0.0
2017-Sep-19 10:00N 40°39' W 074°07'0 0.0
2017-Sep-19 09:30N 40°39' W 074°07'0 0.0
2017-Sep-19 09:00N 40°39' W 074°07'2 4.8
2017-Sep-19 08:30N 40°39' W 074°10'3 5.6
2017-Sep-19 08:00N 40°36' W 074°12'1 0.8
2017-Sep-19 06:36N 40°35' W 074°13'1 1.7
2017-Sep-19 06:15N 40°36' W 074°12'1 4.6
2017-Sep-19 05:59N 40°37' W 074°12'3 6.7
2017-Sep-19 05:30N 40°39' W 074°09'2 4.9
2017-Sep-19 05:00N 40°39' W 074°05'0 0.0
2017-Sep-19 04:30N 40°39' W 074°05'0 0.0
2017-Sep-19 04:00N 40°39' W 074°05'0 0.0
2017-Sep-19 03:30N 40°39' W 074°05'0 0.0
2017-Sep-19 03:00N 40°39' W 074°05'0 0.0
2017-Sep-19 02:30N 40°39' W 074°05'1 1.9
2017-Sep-19 02:00N 40°39' W 074°07'3 5.0
2017-Sep-19 01:30N 40°39' W 074°10'0 0.0
2017-Sep-19 01:00N 40°39' W 074°10'0 0.0
2017-Sep-19 00:30N 40°39' W 074°10'0 0.0
2017-Sep-19 00:00N 40°39' W 074°10'0 0.0
2017-Sep-18 23:30N 40°39' W 074°10'0 0.0
2017-Sep-18 23:00N 40°39' W 074°10'2 3.3
2017-Sep-18 22:30N 40°38' W 074°12'2 3.1
2017-Sep-18 22:00N 40°36' W 074°12'0 0.2
2017-Sep-18 20:23N 40°36' W 074°12'1 3.8
2017-Sep-18 20:00N 40°38' W 074°12'0 0.1
2017-Sep-18 19:30N 40°38' W 074°12'2 4.3
2017-Sep-18 19:00N 40°39' W 074°10'3 5.5
2017-Sep-18 18:30N 40°39' W 074°06'3 5.1
2017-Sep-18 18:01N 40°39' W 074°03'3 6.4
2017-Sep-18 17:31N 40°41' W 074°00'0 0.5
2017-Sep-18 17:01N 40°41' W 074°00'0 0.0
2017-Sep-18 16:30N 40°41' W 074°00'0 0.3
2017-Sep-18 16:00N 40°41' W 074°00'3 5.8
2017-Sep-18 15:30N 40°39' W 074°03'3 6.4
2017-Sep-18 15:00N 40°39' W 074°07'0 0.0
2017-Sep-18 14:30N 40°39' W 074°07'0 0.0
2017-Sep-18 13:30N 40°39' W 074°07'0 0.0
2017-Sep-18 13:00N 40°39' W 074°07'0 0.0
2017-Sep-18 12:30N 40°39' W 074°07'0 0.0
2017-Sep-18 12:00N 40°39' W 074°07'0 0.0
2017-Sep-18 11:30N 40°39' W 074°07'2 3.2
2017-Sep-18 11:00N 40°39' W 074°09'7 8.1
2017-Sep-18 10:11N 40°33' W 074°14'1 2.8
2017-Sep-18 09:54N 40°33' W 074°15'0 0.0
2017-Sep-18 03:25N 40°33' W 074°15'0 0.0
2017-Sep-18 03:00N 40°33' W 074°15'0 0.0
2017-Sep-18 02:29N 40°33' W 074°15'0 0.0
2017-Sep-18 02:00N 40°33' W 074°15'0 0.0
2017-Sep-18 01:27N 40°33' W 074°15'0 0.1
2017-Sep-18 00:47N 40°33' W 074°15'0 0.6
2017-Sep-18 00:29N 40°33' W 074°15'4 5.5
2017-Sep-17 23:44N 40°36' W 074°12'1 5.5
2017-Sep-17 23:30N 40°37' W 074°12'3 5.4
2017-Sep-17 23:00N 40°39' W 074°09'2 2.9
2017-Sep-17 22:23N 40°39' W 074°07'1 1.8
2017-Sep-17 22:00N 40°39' W 074°07'0 0.0
2017-Sep-17 21:30N 40°39' W 074°07'0 0.0
2017-Sep-17 21:00N 40°39' W 074°07'0 0.0
2017-Sep-17 20:30N 40°39' W 074°07'0 0.0
2017-Sep-17 20:00N 40°39' W 074°07'0 0.0
2017-Sep-17 19:30N 40°39' W 074°07'0 0.0
2017-Sep-17 19:00N 40°39' W 074°07'0 0.0
2017-Sep-17 18:30N 40°39' W 074°07'0 0.0
2017-Sep-17 18:00N 40°39' W 074°07'0 0.0
2017-Sep-17 17:30N 40°39' W 074°07'0 0.0
2017-Sep-17 16:59N 40°39' W 074°07'0 0.0
2017-Sep-17 16:30N 40°39' W 074°07'0 0.0
2017-Sep-17 16:00N 40°39' W 074°07'0 0.0
2017-Sep-17 15:30N 40°39' W 074°07'0 0.0
2017-Sep-17 15:00N 40°39' W 074°07'0 0.0
2017-Sep-17 14:30N 40°39' W 074°07'0 0.0
2017-Sep-17 14:00N 40°39' W 074°07'0 0.0
2017-Sep-17 13:30N 40°39' W 074°07'0 0.0
2017-Sep-17 12:59N 40°39' W 074°07'0 0.0
2017-Sep-17 12:30N 40°39' W 074°07'0 0.0
2017-Sep-17 12:00N 40°39' W 074°07'0 0.0
2017-Sep-17 11:30N 40°39' W 074°07'0 0.0
2017-Sep-17 11:00N 40°39' W 074°07'0 0.0
2017-Sep-17 10:30N 40°39' W 074°07'0 0.0
2017-Sep-17 10:00N 40°39' W 074°07'0 0.0
2017-Sep-17 09:31N 40°39' W 074°07'0 0.0
2017-Sep-17 09:00N 40°39' W 074°07'0 0.0
2017-Sep-17 08:30N 40°39' W 074°07'0 0.0
2017-Sep-17 08:00N 40°39' W 074°07'0 0.0
2017-Sep-17 07:30N 40°39' W 074°07'0 0.0
2017-Sep-17 07:00N 40°39' W 074°07'0 0.0
2017-Sep-17 06:30N 40°39' W 074°07'0 0.0
2017-Sep-17 06:00N 40°39' W 074°07'0 0.0
2017-Sep-17 05:30N 40°39' W 074°07'0 0.0
2017-Sep-17 05:00N 40°39' W 074°07'0 0.0
2017-Sep-17 04:30N 40°39' W 074°07'0 0.0
2017-Sep-17 04:00N 40°39' W 074°07'0 0.0
2017-Sep-17 03:30N 40°39' W 074°07'0 0.0
2017-Sep-17 02:48N 40°39' W 074°07'0 0.0
2017-Sep-17 02:28N 40°39' W 074°07'0 0.0
2017-Sep-17 02:00N 40°39' W 074°07'0 0.0
2017-Sep-17 01:30N 40°39' W 074°07'0 0.0
2017-Sep-17 00:59N 40°39' W 074°07'0 0.0
2017-Sep-17 00:29N 40°39' W 074°07'0 0.0
2017-Sep-17 00:00N 40°39' W 074°07'0 0.0
2017-Sep-16 23:30N 40°39' W 074°07'0 0.0
2017-Sep-16 23:00N 40°39' W 074°07'0 0.0
2017-Sep-16 22:30N 40°39' W 074°07'3 5.1
2017-Sep-16 22:00N 40°39' W 074°11'7 1.2
2017-Sep-16 16:20N 40°33' W 074°15'0 0.0
2017-Sep-16 15:56N 40°33' W 074°15'3 5.1
2017-Sep-16 15:17N 40°35' W 074°12'0 0.1
2017-Sep-16 14:55N 40°36' W 074°12'1 1.2
2017-Sep-16 14:21N 40°36' W 074°12'3 8.0
2017-Sep-16 14:00N 40°39' W 074°11'3 5.6
2017-Sep-16 13:30N 40°39' W 074°07'0 0.0
2017-Sep-16 12:59N 40°39' W 074°07'0 0.0
2017-Sep-16 11:43N 40°39' W 074°07'0 0.0
2017-Sep-16 11:26N 40°39' W 074°07'0 0.0
2017-Sep-16 10:58N 40°39' W 074°07'0 0.0
2017-Sep-16 10:29N 40°39' W 074°07'0 0.0
2017-Sep-16 09:36N 40°39' W 074°07'0 0.1
2017-Sep-16 09:30N 40°39' W 074°07'0 0.0
2017-Sep-16 08:59N 40°39' W 074°07'0 0.0
2017-Sep-16 08:30N 40°39' W 074°07'0 0.0
2017-Sep-16 07:54N 40°39' W 074°07'0 0.0
2017-Sep-16 07:30N 40°39' W 074°07'0 0.0
2017-Sep-16 06:59N 40°39' W 074°07'0 0.0
2017-Sep-16 06:30N 40°39' W 074°07'0 0.0
2017-Sep-16 05:52N 40°39' W 074°07'0 0.0
2017-Sep-16 05:28N 40°39' W 074°07'0 0.0
2017-Sep-16 05:00N 40°39' W 074°07'0 0.0
2017-Sep-16 04:30N 40°39' W 074°07'0 0.8
2017-Sep-16 04:01N 40°39' W 074°07'0 0.4
2017-Sep-16 03:30N 40°39' W 074°07'0 0.7
2017-Sep-16 02:58N 40°39' W 074°07'0 0.0
2017-Sep-16 02:26N 40°39' W 074°07'0 0.0
2017-Sep-16 02:00N 40°39' W 074°07'0 0.0
2017-Sep-16 01:30N 40°39' W 074°07'0 0.0
2017-Sep-16 01:00N 40°39' W 074°07'0 0.0
2017-Sep-16 00:30N 40°39' W 074°07'0 0.0
2017-Sep-15 23:59N 40°39' W 074°07'0 0.0
2017-Sep-15 23:30N 40°39' W 074°07'0 0.0
2017-Sep-15 23:00N 40°39' W 074°07'0 0.0
2017-Sep-15 22:29N 40°39' W 074°07'0 0.0
2017-Sep-15 22:00N 40°39' W 074°07'0 0.0
2017-Sep-15 21:30N 40°39' W 074°07'4 7.2
2017-Sep-15 21:00N 40°38' W 074°12'5 8.0
2017-Sep-15 20:21N 40°33' W 074°14'1 1.9
2017-Sep-15 19:52N 40°33' W 074°15'1 2.3
2017-Sep-15 19:22N 40°33' W 074°14'3 1.3
2017-Sep-15 17:24N 40°36' W 074°12'0 0.7
2017-Sep-15 17:00N 40°35' W 074°12'1 1.2
2017-Sep-15 16:25N 40°36' W 074°12'3 6.3
2017-Sep-15 16:00N 40°39' W 074°11'4 8.3
2017-Sep-15 15:30N 40°39' W 074°06'0 0.0
2017-Sep-15 15:00N 40°39' W 074°06'0 0.0
2017-Sep-15 14:30N 40°39' W 074°06'0 0.0
2017-Sep-15 14:00N 40°39' W 074°06'0 0.0
2017-Sep-15 13:30N 40°39' W 074°06'0 0.0
2017-Sep-15 13:00N 40°39' W 074°06'0 0.0
2017-Sep-15 12:30N 40°39' W 074°06'0 0.0
2017-Sep-15 12:00N 40°39' W 074°06'0 0.0
2017-Sep-15 11:30N 40°39' W 074°06'0 0.0
2017-Sep-15 11:00N 40°39' W 074°06'0 0.0
2017-Sep-15 10:30N 40°39' W 074°06'0 0.0
2017-Sep-15 10:00N 40°39' W 074°06'0 0.0
2017-Sep-15 09:30N 40°39' W 074°06'0 0.0
2017-Sep-15 09:00N 40°39' W 074°06'0 0.0
2017-Sep-15 08:30N 40°39' W 074°06'0 0.0
2017-Sep-15 08:00N 40°39' W 074°06'0 0.0
2017-Sep-15 07:30N 40°39' W 074°06'0 0.0
2017-Sep-15 07:00N 40°39' W 074°06'0 0.0
2017-Sep-15 06:30N 40°39' W 074°06'0 0.0
2017-Sep-15 06:00N 40°39' W 074°06'0 0.0
2017-Sep-15 05:31N 40°39' W 074°06'0 0.0
2017-Sep-15 05:00N 40°39' W 074°06'0 0.0
2017-Sep-15 04:30N 40°39' W 074°06'0 0.0
2017-Sep-15 04:00N 40°39' W 074°06'0 0.1
2017-Sep-15 03:30N 40°39' W 074°06'1 1.8
2017-Sep-15 03:00N 40°39' W 074°07'1 1.9
2017-Sep-15 02:30N 40°39' W 074°06'0 0.0
2017-Sep-15 02:00N 40°39' W 074°06'0 0.0
2017-Sep-15 01:30N 40°39' W 074°06'0 0.0
2017-Sep-15 01:00N 40°39' W 074°06'0 0.0
2017-Sep-15 00:30N 40°39' W 074°06'0 0.0
2017-Sep-15 00:00N 40°39' W 074°06'0 0.0
2017-Sep-14 23:30N 40°39' W 074°06'0 0.0
2017-Sep-14 23:00N 40°39' W 074°06'0 0.0
2017-Sep-14 22:30N 40°39' W 074°06'3 6.9
2017-Sep-14 22:00N 40°40' W 074°02'2 3.4
2017-Sep-14 21:30N 40°41' W 074°00'0 0.6
2017-Sep-14 21:00N 40°41' W 074°01'1 2.5
2017-Sep-14 20:30N 40°41' W 074°02'2 3.7
2017-Sep-14 20:00N 40°39' W 074°03'3 5.5
2017-Sep-14 19:30N 40°39' W 074°07'0 0.1
2017-Sep-14 19:00N 40°39' W 074°07'1 1.1
2017-Sep-14 18:30N 40°39' W 074°07'0 0.0
2017-Sep-14 18:00N 40°39' W 074°07'0 0.0
2017-Sep-14 17:30N 40°39' W 074°07'0 0.0
2017-Sep-14 17:00N 40°39' W 074°07'0 0.0
2017-Sep-14 16:30N 40°39' W 074°07'0 0.0
2017-Sep-14 16:00N 40°39' W 074°07'0 0.0
2017-Sep-14 15:30N 40°39' W 074°07'0 0.0
2017-Sep-14 15:00N 40°39' W 074°07'0 0.0
2017-Sep-14 14:26N 40°39' W 074°07'0 0.0
2017-Sep-14 13:57N 40°39' W 074°07'0 0.0
2017-Sep-14 13:30N 40°39' W 074°07'0 0.0
2017-Sep-14 13:00N 40°39' W 074°07'0 0.0
2017-Sep-14 12:30N 40°39' W 074°07'0 0.0
2017-Sep-14 12:00N 40°39' W 074°07'0 0.0
2017-Sep-14 11:30N 40°39' W 074°07'0 0.0
2017-Sep-14 10:59N 40°39' W 074°07'0 0.0
2017-Sep-14 10:30N 40°39' W 074°07'0 0.0
2017-Sep-14 10:01N 40°39' W 074°07'0 0.0
2017-Sep-14 09:30N 40°39' W 074°07'0 0.0
2017-Sep-14 08:59N 40°39' W 074°07'0 0.0
2017-Sep-14 08:30N 40°39' W 074°07'0 0.0
2017-Sep-14 08:00N 40°39' W 074°07'1 1.1
2017-Sep-14 07:30N 40°39' W 074°07'0 0.0
2017-Sep-14 07:00N 40°39' W 074°07'2 4.5
2017-Sep-14 06:30N 40°39' W 074°04'0 0.5
2017-Sep-14 06:00N 40°38' W 074°04'0 0.2
2017-Sep-14 05:30N 40°38' W 074°04'1 2.5
2017-Sep-14 05:00N 40°39' W 074°05'3 5.4
2017-Sep-14 04:30N 40°39' W 074°09'3 5.5
2017-Sep-14 04:00N 40°37' W 074°12'2 3.3
2017-Sep-14 03:22N 40°35' W 074°13'0 0.0
2017-Sep-14 02:53N 40°35' W 074°13'1 0.3
2017-Sep-14 00:29N 40°36' W 074°12'4 7.4
2017-Sep-14 00:00N 40°39' W 074°10'5 9.4
2017-Sep-13 23:30N 40°39' W 074°03'611.6
2017-Sep-13 23:00N 40°43' W 073°58'1 1.1
2017-Sep-13 22:30N 40°43' W 073°58'1 2.9
2017-Sep-13 22:00N 40°42' W 073°60'3 5.1
2017-Sep-13 21:30N 40°40' W 074°02'4 8.2
2017-Sep-13 21:00N 40°39' W 074°07'0 0.0
2017-Sep-13 20:18N 40°39' W 074°07'0 0.0
2017-Sep-13 18:16N 40°39' W 074°07'0 0.0
2017-Sep-13 17:46N 40°39' W 074°07'0 0.0
2017-Sep-13 17:04N 40°39' W 074°07'0 0.0
2017-Sep-13 17:00N 40°39' W 074°07'0 0.0
2017-Sep-13 16:28N 40°39' W 074°07'0 0.0
2017-Sep-13 15:59N 40°39' W 074°07'2 3.6
2017-Sep-13 15:30N 40°39' W 074°09'4 7.3
2017-Sep-13 15:00N 40°36' W 074°12'1 1.2
2017-Sep-13 14:29N 40°35' W 074°13'1 1.6
2017-Sep-13 13:48N 40°36' W 074°12'1 3.5
2017-Sep-13 13:30N 40°37' W 074°12'2 3.4
2017-Sep-13 13:00N 40°39' W 074°11'4 8.1
2017-Sep-13 12:30N 40°39' W 074°06'3 6.0
2017-Sep-13 12:00N 40°40' W 074°02'0 0.0
2017-Sep-13 11:30N 40°40' W 074°02'0 0.0
2017-Sep-13 11:00N 40°40' W 074°02'0 0.0
2017-Sep-13 10:30N 40°40' W 074°02'0 0.0
2017-Sep-13 10:00N 40°40' W 074°02'0 0.0
2017-Sep-13 09:30N 40°40' W 074°02'0 0.0
2017-Sep-13 09:00N 40°40' W 074°02'0 0.0
2017-Sep-13 08:30N 40°40' W 074°02'0 0.1
2017-Sep-13 08:00N 40°40' W 074°02'0 0.1
2017-Sep-13 07:30N 40°40' W 074°02'0 0.0
2017-Sep-13 07:00N 40°40' W 074°02'0 0.0
2017-Sep-13 06:30N 40°40' W 074°02'0 0.0
2017-Sep-13 06:00N 40°40' W 074°02'0 0.0
2017-Sep-13 05:30N 40°40' W 074°02'0 0.0
2017-Sep-13 05:00N 40°40' W 074°02'0 0.1
2017-Sep-13 04:31N 40°40' W 074°02'0 0.0
2017-Sep-13 04:00N 40°40' W 074°02'0 0.0
2017-Sep-13 03:30N 40°40' W 074°02'0 0.0
2017-Sep-13 03:00N 40°40' W 074°02'0 0.0
2017-Sep-13 02:30N 40°40' W 074°02'0 0.1
2017-Sep-13 02:00N 40°40' W 074°02'0 0.0
2017-Sep-13 01:30N 40°40' W 074°02'0 0.0
2017-Sep-13 01:00N 40°40' W 074°02'0 0.0
2017-Sep-13 00:30N 40°40' W 074°02'0 0.0
2017-Sep-13 00:00N 40°40' W 074°02'0 0.0
2017-Sep-12 23:30N 40°40' W 074°02'2 3.5
2017-Sep-12 23:00N 40°41' W 074°01'0 0.5
2017-Sep-12 22:30N 40°41' W 074°00'2 4.0
2017-Sep-12 22:00N 40°40' W 074°02'0 0.0
2017-Sep-12 21:30N 40°40' W 074°02'0 0.0
2017-Sep-12 21:00N 40°40' W 074°02'0 0.0
2017-Sep-12 20:30N 40°40' W 074°02'0 0.0
2017-Sep-12 20:00N 40°40' W 074°02'0 0.1
2017-Sep-12 19:30N 40°40' W 074°02'0 0.0
2017-Sep-12 19:00N 40°40' W 074°02'0 0.0
2017-Sep-12 18:30N 40°40' W 074°02'0 0.0
2017-Sep-12 18:00N 40°40' W 074°02'0 0.0
2017-Sep-12 17:30N 40°40' W 074°02'0 0.0
2017-Sep-12 17:00N 40°40' W 074°02'0 0.0
2017-Sep-12 16:30N 40°40' W 074°02'0 0.0
2017-Sep-12 16:00N 40°40' W 074°02'0 0.0
2017-Sep-12 15:30N 40°40' W 074°02'0 0.1
2017-Sep-12 15:00N 40°40' W 074°02'0 0.1
2017-Sep-12 14:30N 40°40' W 074°02'0 0.0
2017-Sep-12 14:00N 40°40' W 074°02'0 0.0
2017-Sep-12 13:30N 40°40' W 074°02'0 0.0
2017-Sep-12 13:00N 40°40' W 074°02'0 0.0
2017-Sep-12 12:30N 40°40' W 074°02'0 0.0
2017-Sep-12 12:00N 40°40' W 074°02'0 0.0
2017-Sep-12 11:30N 40°40' W 074°02'0 0.1
2017-Sep-12 11:00N 40°40' W 074°02'4 7.9
2017-Sep-12 10:30N 40°39' W 074°07'4 8.3
2017-Sep-12 10:00N 40°37' W 074°12'4 7.6
2017-Sep-12 09:27N 40°33' W 074°14'1 2.2
2017-Sep-12 09:00N 40°33' W 074°15'0 0.0
2017-Sep-12 07:58N 40°33' W 074°15'4 6.9
2017-Sep-12 07:22N 40°36' W 074°12'3 7.2
2017-Sep-12 07:00N 40°39' W 074°11'4 8.4
2017-Sep-12 06:30N 40°39' W 074°06'3 6.1
2017-Sep-12 06:00N 40°40' W 074°02'0 0.0
2017-Sep-12 05:30N 40°40' W 074°02'0 0.0
2017-Sep-12 05:00N 40°40' W 074°02'0 0.0
2017-Sep-12 04:30N 40°40' W 074°02'0 0.0
2017-Sep-12 04:00N 40°40' W 074°02'0 0.0
2017-Sep-12 03:30N 40°40' W 074°02'0 0.0
2017-Sep-12 03:00N 40°40' W 074°02'0 0.0
2017-Sep-12 02:30N 40°40' W 074°02'0 0.0
2017-Sep-12 02:00N 40°40' W 074°02'1 2.4
2017-Sep-12 01:30N 40°41' W 074°01'4 8.1
2017-Sep-12 01:01N 40°44' W 073°58'2 4.4
2017-Sep-12 00:29N 40°46' W 073°57'4 8.7
2017-Sep-12 00:00N 40°43' W 073°59'4 8.5
2017-Sep-11 23:30N 40°40' W 074°03'3 5.7
2017-Sep-11 23:00N 40°39' W 074°07'0 0.1
2017-Sep-11 22:31N 40°39' W 074°07'4 7.1
2017-Sep-11 22:00N 40°40' W 074°02'0 0.0
2017-Sep-11 21:30N 40°40' W 074°02'0 0.0
2017-Sep-11 20:30N 40°40' W 074°02'0 0.0
2017-Sep-11 20:00N 40°40' W 074°02'0 0.0
2017-Sep-11 19:30N 40°40' W 074°02'0 0.0
2017-Sep-11 19:00N 40°40' W 074°02'0 0.1
2017-Sep-11 18:30N 40°40' W 074°02'0 0.1
2017-Sep-11 18:00N 40°40' W 074°02'0 0.0
2017-Sep-11 17:30N 40°40' W 074°02'0 0.0
2017-Sep-11 17:00N 40°40' W 074°02'0 0.0
2017-Sep-11 16:30N 40°40' W 074°02'0 0.0
2017-Sep-11 16:00N 40°40' W 074°02'0 0.0
2017-Sep-11 15:30N 40°40' W 074°02'0 0.0
2017-Sep-11 15:00N 40°40' W 074°02'0 0.0
2017-Sep-11 14:30N 40°40' W 074°02'0 0.0
2017-Sep-11 14:00N 40°40' W 074°02'0 0.1
2017-Sep-11 13:30N 40°40' W 074°02'0 0.0
2017-Sep-11 13:00N 40°40' W 074°02'0 0.0
2017-Sep-11 12:30N 40°40' W 074°02'0 0.0
2017-Sep-11 12:00N 40°40' W 074°02'0 0.0
2017-Sep-11 11:30N 40°40' W 074°02'0 0.0
2017-Sep-11 11:00N 40°40' W 074°02'0 0.0
2017-Sep-11 10:30N 40°40' W 074°02'0 0.0
2017-Sep-11 10:00N 40°40' W 074°02'0 0.0
2017-Sep-11 09:30N 40°40' W 074°02'0 0.0
2017-Sep-11 09:00N 40°40' W 074°02'0 0.0
2017-Sep-11 08:30N 40°40' W 074°02'0 0.0
2017-Sep-11 08:00N 40°40' W 074°02'0 0.0
2017-Sep-11 07:30N 40°40' W 074°02'0 0.0
2017-Sep-11 07:00N 40°40' W 074°02'0 0.0
2017-Sep-11 06:30N 40°40' W 074°02'0 0.0
2017-Sep-11 06:00N 40°40' W 074°02'0 0.0
2017-Sep-11 05:30N 40°40' W 074°02'0 0.0
2017-Sep-11 05:00N 40°40' W 074°02'0 0.1
2017-Sep-11 04:30N 40°40' W 074°02'0 0.0
2017-Sep-11 04:00N 40°40' W 074°02'0 0.0
2017-Sep-11 03:30N 40°40' W 074°02'0 0.0
2017-Sep-11 03:00N 40°40' W 074°02'0 0.0
2017-Sep-11 02:30N 40°40' W 074°02'0 0.0
2017-Sep-11 02:00N 40°40' W 074°02'0 0.1
2017-Sep-11 01:30N 40°40' W 074°02'0 0.0
2017-Sep-11 01:00N 40°40' W 074°02'0 0.0
2017-Sep-11 00:30N 40°40' W 074°02'0 0.0
2017-Sep-11 00:00N 40°40' W 074°02'0 0.0
2017-Sep-10 23:30N 40°40' W 074°02'0 0.0
2017-Sep-10 23:00N 40°40' W 074°02'0 0.0
2017-Sep-10 22:30N 40°40' W 074°02'0 0.0
2017-Sep-10 22:00N 40°40' W 074°02'0 0.0
2017-Sep-10 21:30N 40°40' W 074°02'0 0.0
2017-Sep-10 21:00N 40°40' W 074°02'0 0.0
2017-Sep-10 20:30N 40°40' W 074°02'0 0.0
2017-Sep-10 20:00N 40°40' W 074°02'0 0.0
2017-Sep-10 19:30N 40°40' W 074°02'0 0.0
2017-Sep-10 19:00N 40°40' W 074°02'0 0.0
2017-Sep-10 18:30N 40°40' W 074°02'0 0.0
2017-Sep-10 18:00N 40°40' W 074°02'0 0.0
2017-Sep-10 17:30N 40°40' W 074°02'0 0.0
2017-Sep-10 17:00N 40°40' W 074°02'0 0.0
2017-Sep-10 16:30N 40°40' W 074°02'0 0.1
2017-Sep-10 16:00N 40°40' W 074°02'0 0.1
2017-Sep-10 15:31N 40°40' W 074°02'2 4.3
2017-Sep-10 15:00N 40°39' W 074°05'2 2.2
2017-Sep-10 14:00N 40°40' W 074°02'0 0.0
2017-Sep-10 13:30N 40°40' W 074°02'0 0.0
2017-Sep-10 13:00N 40°40' W 074°02'0 0.0
2017-Sep-10 12:30N 40°40' W 074°02'0 0.0
2017-Sep-10 12:00N 40°40' W 074°02'0 0.0
2017-Sep-10 11:30N 40°40' W 074°02'0 0.0
2017-Sep-10 11:00N 40°40' W 074°02'0 0.0
2017-Sep-10 10:30N 40°40' W 074°02'0 0.0
2017-Sep-10 10:00N 40°40' W 074°02'0 0.0
2017-Sep-10 09:30N 40°40' W 074°02'0 0.0
2017-Sep-10 09:00N 40°40' W 074°02'0 0.0
2017-Sep-10 08:30N 40°40' W 074°02'0 0.0
2017-Sep-10 08:00N 40°40' W 074°02'0 0.0
2017-Sep-10 07:30N 40°40' W 074°02'0 0.0
2017-Sep-10 07:00N 40°40' W 074°02'0 0.0
2017-Sep-10 06:30N 40°40' W 074°02'0 0.0
2017-Sep-10 06:00N 40°40' W 074°02'0 0.0
2017-Sep-10 05:30N 40°40' W 074°02'0 0.0
2017-Sep-10 05:00N 40°40' W 074°02'0 0.0
2017-Sep-10 04:30N 40°40' W 074°02'0 0.0
2017-Sep-10 04:00N 40°40' W 074°02'0 0.1
2017-Sep-10 03:30N 40°40' W 074°02'0 0.0
2017-Sep-10 03:00N 40°40' W 074°02'0 0.0
2017-Sep-10 02:30N 40°40' W 074°02'0 0.0
2017-Sep-10 02:00N 40°40' W 074°02'0 0.0
2017-Sep-10 01:30N 40°40' W 074°02'0 0.0
2017-Sep-10 01:00N 40°40' W 074°02'0 0.0
2017-Sep-10 00:30N 40°40' W 074°02'0 0.0
2017-Sep-10 00:00N 40°40' W 074°02'0 0.0
2017-Sep-09 23:30N 40°40' W 074°02'0 0.0
2017-Sep-09 23:00N 40°40' W 074°02'0 0.0
2017-Sep-09 22:30N 40°40' W 074°02'0 0.0
2017-Sep-09 22:00N 40°40' W 074°02'0 0.0
2017-Sep-09 21:30N 40°40' W 074°02'0 0.0
2017-Sep-09 21:00N 40°40' W 074°02'0 0.0
2017-Sep-09 20:30N 40°40' W 074°02'  
Track history (hours):
 
Tides and Currents Weather Stations Pressure Air Temp Water Temp Dewpoint Dewpoint Depression Visibility Wind Speed Wind Dir Waves Ship Positions

Evening Mist

Owner: TUG EVENING MIST CORP, MELVILLE, NY. More information available from US FCC via Universal Licensing System and Coast Guard Vessel Documentation Center.

Last reported at 2017-Sep-19 20:30 UTC. Time now 2017-Sep-19 20:28 UTC.
Position N 40°39' W 074°02'.

Length 122 m; draft 15.5 m.

Type: Tow > 200 m length. MMSI: 367008230.

Date/timePositionNaut miles runAvg speedWind from/ knotsBaromVisibWave heightAir tempDewpointWater temp
2017-Sep-19 20:30N 40°39' W 074°02'0 0.0
2017-Sep-19 20:00N 40°39' W 074°02'0 0.0
2017-Sep-19 19:30N 40°39' W 074°02'0 0.0
2017-Sep-19 19:00N 40°40' W 074°02'0 0.0
2017-Sep-19 18:30N 40°40' W 074°02'0 0.0
2017-Sep-19 18:00N 40°39' W 074°02'0 0.0
2017-Sep-19 17:30N 40°39' W 074°02'0 0.0
2017-Sep-19 17:00N 40°39' W 074°02'0 0.0
2017-Sep-19 16:30N 40°39' W 074°02'0 0.0
2017-Sep-19 16:00N 40°40' W 074°02'0 0.0
2017-Sep-19 15:30N 40°40' W 074°02'2 4.0
2017-Sep-19 15:00N 40°39' W 074°05'4 8.0
2017-Sep-19 14:30N 40°39' W 074°10'2 3.8
2017-Sep-19 14:00N 40°38' W 074°12'0 0.0
2017-Sep-19 13:30N 40°38' W 074°12'0 0.5
2017-Sep-19 13:00N 40°38' W 074°12'3 6.6
2017-Sep-19 12:30N 40°39' W 074°08'1 1.2
2017-Sep-19 12:00N 40°39' W 074°07'0 0.0
2017-Sep-19 11:30N 40°39' W 074°07'0 0.0
2017-Sep-19 11:00N 40°39' W 074°07'0 0.0
2017-Sep-19 10:30N 40°39' W 074°07'0 0.0
2017-Sep-19 10:00N 40°39' W 074°07'0 0.0
2017-Sep-19 09:30N 40°39' W 074°07'0 0.0
2017-Sep-19 09:00N 40°39' W 074°07'2 4.8
2017-Sep-19 08:30N 40°39' W 074°10'3 5.6
2017-Sep-19 08:00N 40°36' W 074°12'1 0.8
2017-Sep-19 06:36N 40°35' W 074°13'1 1.7
2017-Sep-19 06:15N 40°36' W 074°12'1 4.6
2017-Sep-19 05:59N 40°37' W 074°12'3 6.7
2017-Sep-19 05:30N 40°39' W 074°09'2 4.9
2017-Sep-19 05:00N 40°39' W 074°05'0 0.0
2017-Sep-19 04:30N 40°39' W 074°05'0 0.0
2017-Sep-19 04:00N 40°39' W 074°05'0 0.0
2017-Sep-19 03:30N 40°39' W 074°05'0 0.0
2017-Sep-19 03:00N 40°39' W 074°05'0 0.0
2017-Sep-19 02:30N 40°39' W 074°05'1 1.9
2017-Sep-19 02:00N 40°39' W 074°07'3 5.0
2017-Sep-19 01:30N 40°39' W 074°10'0 0.0
2017-Sep-19 01:00N 40°39' W 074°10'0 0.0
2017-Sep-19 00:30N 40°39' W 074°10'0 0.0
2017-Sep-19 00:00N 40°39' W 074°10'0 0.0
2017-Sep-18 23:30N 40°39' W 074°10'0 0.0
2017-Sep-18 23:00N 40°39' W 074°10'2 3.3
2017-Sep-18 22:30N 40°38' W 074°12'2 3.1
2017-Sep-18 22:00N 40°36' W 074°12'0 0.2
2017-Sep-18 20:23N 40°36' W 074°12'1 3.8
2017-Sep-18 20:00N 40°38' W 074°12'0 0.1
2017-Sep-18 19:30N 40°38' W 074°12'2 4.3
2017-Sep-18 19:00N 40°39' W 074°10'3 5.5
2017-Sep-18 18:30N 40°39' W 074°06'3 5.1
2017-Sep-18 18:01N 40°39' W 074°03'3 6.4
2017-Sep-18 17:31N 40°41' W 074°00'0 0.5
2017-Sep-18 17:01N 40°41' W 074°00'0 0.0
2017-Sep-18 16:30N 40°41' W 074°00'0 0.3
2017-Sep-18 16:00N 40°41' W 074°00'3 5.8
2017-Sep-18 15:30N 40°39' W 074°03'3 6.4
2017-Sep-18 15:00N 40°39' W 074°07'0 0.0
2017-Sep-18 14:30N 40°39' W 074°07'0 0.0
2017-Sep-18 13:30N 40°39' W 074°07'0 0.0
2017-Sep-18 13:00N 40°39' W 074°07'0 0.0
2017-Sep-18 12:30N 40°39' W 074°07'0 0.0
2017-Sep-18 12:00N 40°39' W 074°07'0 0.0
2017-Sep-18 11:30N 40°39' W 074°07'2 3.2
2017-Sep-18 11:00N 40°39' W 074°09'7 8.1
2017-Sep-18 10:11N 40°33' W 074°14'1 2.8
2017-Sep-18 09:54N 40°33' W 074°15'0 0.0
2017-Sep-18 03:25N 40°33' W 074°15'0 0.0
2017-Sep-18 03:00N 40°33' W 074°15'0 0.0
2017-Sep-18 02:29N 40°33' W 074°15'0 0.0
2017-Sep-18 02:00N 40°33' W 074°15'0 0.0
2017-Sep-18 01:27N 40°33' W 074°15'0 0.1
2017-Sep-18 00:47N 40°33' W 074°15'0 0.6
2017-Sep-18 00:29N 40°33' W 074°15'4 5.5
2017-Sep-17 23:44N 40°36' W 074°12'1 5.5
2017-Sep-17 23:30N 40°37' W 074°12'3 5.4
2017-Sep-17 23:00N 40°39' W 074°09'2 2.9
2017-Sep-17 22:23N 40°39' W 074°07'1 1.8
2017-Sep-17 22:00N 40°39' W 074°07'0 0.0
2017-Sep-17 21:30N 40°39' W 074°07'0 0.0
2017-Sep-17 21:00N 40°39' W 074°07'0 0.0
2017-Sep-17 20:30N 40°39' W 074°07'0 0.0
2017-Sep-17 20:00N 40°39' W 074°07'0 0.0
2017-Sep-17 19:30N 40°39' W 074°07'0 0.0
2017-Sep-17 19:00N 40°39' W 074°07'0 0.0
2017-Sep-17 18:30N 40°39' W 074°07'0 0.0
2017-Sep-17 18:00N 40°39' W 074°07'0 0.0
2017-Sep-17 17:30N 40°39' W 074°07'0 0.0
2017-Sep-17 16:59N 40°39' W 074°07'0 0.0
2017-Sep-17 16:30N 40°39' W 074°07'0 0.0
2017-Sep-17 16:00N 40°39' W 074°07'0 0.0
2017-Sep-17 15:30N 40°39' W 074°07'0 0.0
2017-Sep-17 15:00N 40°39' W 074°07'0 0.0
2017-Sep-17 14:30N 40°39' W 074°07'0 0.0
2017-Sep-17 14:00N 40°39' W 074°07'0 0.0
2017-Sep-17 13:30N 40°39' W 074°07'0 0.0
2017-Sep-17 12:59N 40°39' W 074°07'0 0.0
2017-Sep-17 12:30N 40°39' W 074°07'0 0.0
2017-Sep-17 12:00N 40°39' W 074°07'0 0.0
2017-Sep-17 11:30N 40°39' W 074°07'0 0.0
2017-Sep-17 11:00N 40°39' W 074°07'0 0.0
2017-Sep-17 10:30N 40°39' W 074°07'0 0.0
2017-Sep-17 10:00N 40°39' W 074°07'0 0.0
2017-Sep-17 09:31N 40°39' W 074°07'0 0.0
2017-Sep-17 09:00N 40°39' W 074°07'0 0.0
2017-Sep-17 08:30N 40°39' W 074°07'0 0.0
2017-Sep-17 08:00N 40°39' W 074°07'0 0.0
2017-Sep-17 07:30N 40°39' W 074°07'0 0.0
2017-Sep-17 07:00N 40°39' W 074°07'0 0.0
2017-Sep-17 06:30N 40°39' W 074°07'0 0.0
2017-Sep-17 06:00N 40°39' W 074°07'0 0.0
2017-Sep-17 05:30N 40°39' W 074°07'0 0.0
2017-Sep-17 05:00N 40°39' W 074°07'0 0.0
2017-Sep-17 04:30N 40°39' W 074°07'0 0.0
2017-Sep-17 04:00N 40°39' W 074°07'0 0.0
2017-Sep-17 03:30N 40°39' W 074°07'0 0.0
2017-Sep-17 02:48N 40°39' W 074°07'0 0.0
2017-Sep-17 02:28N 40°39' W 074°07'0 0.0
2017-Sep-17 02:00N 40°39' W 074°07'0 0.0
2017-Sep-17 01:30N 40°39' W 074°07'0 0.0
2017-Sep-17 00:59N 40°39' W 074°07'0 0.0
2017-Sep-17 00:29N 40°39' W 074°07'0 0.0
2017-Sep-17 00:00N 40°39' W 074°07'0 0.0
2017-Sep-16 23:30N 40°39' W 074°07'0 0.0
2017-Sep-16 23:00N 40°39' W 074°07'0 0.0
2017-Sep-16 22:30N 40°39' W 074°07'3 5.1
2017-Sep-16 22:00N 40°39' W 074°11'7 1.2
2017-Sep-16 16:20N 40°33' W 074°15'0 0.0
2017-Sep-16 15:56N 40°33' W 074°15'3 5.1
2017-Sep-16 15:17N 40°35' W 074°12'0 0.1
2017-Sep-16 14:55N 40°36' W 074°12'1 1.2
2017-Sep-16 14:21N 40°36' W 074°12'3 8.0
2017-Sep-16 14:00N 40°39' W 074°11'3 5.6
2017-Sep-16 13:30N 40°39' W 074°07'0 0.0
2017-Sep-16 12:59N 40°39' W 074°07'0 0.0
2017-Sep-16 11:43N 40°39' W 074°07'0 0.0
2017-Sep-16 11:26N 40°39' W 074°07'0 0.0
2017-Sep-16 10:58N 40°39' W 074°07'0 0.0
2017-Sep-16 10:29N 40°39' W 074°07'0 0.0
2017-Sep-16 09:36N 40°39' W 074°07'0 0.1
2017-Sep-16 09:30N 40°39' W 074°07'0 0.0
2017-Sep-16 08:59N 40°39' W 074°07'0 0.0
2017-Sep-16 08:30N 40°39' W 074°07'0 0.0
2017-Sep-16 07:54N 40°39' W 074°07'0 0.0
2017-Sep-16 07:30N 40°39' W 074°07'0 0.0
2017-Sep-16 06:59N 40°39' W 074°07'0 0.0
2017-Sep-16 06:30N 40°39' W 074°07'0 0.0
2017-Sep-16 05:52N 40°39' W 074°07'0 0.0
2017-Sep-16 05:28N 40°39' W 074°07'0 0.0
2017-Sep-16 05:00N 40°39' W 074°07'0 0.0
2017-Sep-16 04:30N 40°39' W 074°07'0 0.8
2017-Sep-16 04:01N 40°39' W 074°07'0 0.4
2017-Sep-16 03:30N 40°39' W 074°07'0 0.7
2017-Sep-16 02:58N 40°39' W 074°07'0 0.0
2017-Sep-16 02:26N 40°39' W 074°07'0 0.0
2017-Sep-16 02:00N 40°39' W 074°07'0 0.0
2017-Sep-16 01:30N 40°39' W 074°07'0 0.0
2017-Sep-16 01:00N 40°39' W 074°07'0 0.0
2017-Sep-16 00:30N 40°39' W 074°07'0 0.0
2017-Sep-15 23:59N 40°39' W 074°07'0 0.0
2017-Sep-15 23:30N 40°39' W 074°07'0 0.0
2017-Sep-15 23:00N 40°39' W 074°07'0 0.0
2017-Sep-15 22:29N 40°39' W 074°07'0 0.0
2017-Sep-15 22:00N 40°39' W 074°07'0 0.0
2017-Sep-15 21:30N 40°39' W 074°07'4 7.2
2017-Sep-15 21:00N 40°38' W 074°12'5 8.0
2017-Sep-15 20:21N 40°33' W 074°14'1 1.9
2017-Sep-15 19:52N 40°33' W 074°15'1 2.3
2017-Sep-15 19:22N 40°33' W 074°14'3 1.3
2017-Sep-15 17:24N 40°36' W 074°12'0 0.7
2017-Sep-15 17:00N 40°35' W 074°12'1 1.2
2017-Sep-15 16:25N 40°36' W 074°12'3 6.3
2017-Sep-15 16:00N 40°39' W 074°11'4 8.3
2017-Sep-15 15:30N 40°39' W 074°06'0 0.0
2017-Sep-15 15:00N 40°39' W 074°06'0 0.0
2017-Sep-15 14:30N 40°39' W 074°06'0 0.0
2017-Sep-15 14:00N 40°39' W 074°06'0 0.0
2017-Sep-15 13:30N 40°39' W 074°06'0 0.0
2017-Sep-15 13:00N 40°39' W 074°06'0 0.0
2017-Sep-15 12:30N 40°39' W 074°06'0 0.0
2017-Sep-15 12:00N 40°39' W 074°06'0 0.0
2017-Sep-15 11:30N 40°39' W 074°06'0 0.0
2017-Sep-15 11:00N 40°39' W 074°06'0 0.0
2017-Sep-15 10:30N 40°39' W 074°06'0 0.0
2017-Sep-15 10:00N 40°39' W 074°06'0 0.0
2017-Sep-15 09:30N 40°39' W 074°06'0 0.0
2017-Sep-15 09:00N 40°39' W 074°06'0 0.0
2017-Sep-15 08:30N 40°39' W 074°06'0 0.0
2017-Sep-15 08:00N 40°39' W 074°06'0 0.0
2017-Sep-15 07:30N 40°39' W 074°06'0 0.0
2017-Sep-15 07:00N 40°39' W 074°06'0 0.0
2017-Sep-15 06:30N 40°39' W 074°06'0 0.0
2017-Sep-15 06:00N 40°39' W 074°06'0 0.0
2017-Sep-15 05:31N 40°39' W 074°06'0 0.0
2017-Sep-15 05:00N 40°39' W 074°06'0 0.0
2017-Sep-15 04:30N 40°39' W 074°06'0 0.0
2017-Sep-15 04:00N 40°39' W 074°06'0 0.1
2017-Sep-15 03:30N 40°39' W 074°06'1 1.8
2017-Sep-15 03:00N 40°39' W 074°07'1 1.9
2017-Sep-15 02:30N 40°39' W 074°06'0 0.0
2017-Sep-15 02:00N 40°39' W 074°06'0 0.0
2017-Sep-15 01:30N 40°39' W 074°06'0 0.0
2017-Sep-15 01:00N 40°39' W 074°06'0 0.0
2017-Sep-15 00:30N 40°39' W 074°06'0 0.0
2017-Sep-15 00:00N 40°39' W 074°06'0 0.0
2017-Sep-14 23:30N 40°39' W 074°06'0 0.0
2017-Sep-14 23:00N 40°39' W 074°06'0 0.0
2017-Sep-14 22:30N 40°39' W 074°06'3 6.9
2017-Sep-14 22:00N 40°40' W 074°02'2 3.4
2017-Sep-14 21:30N 40°41' W 074°00'0 0.6
2017-Sep-14 21:00N 40°41' W 074°01'1 2.5
2017-Sep-14 20:30N 40°41' W 074°02'2 3.7
2017-Sep-14 20:00N 40°39' W 074°03'3 5.5
2017-Sep-14 19:30N 40°39' W 074°07'0 0.1
2017-Sep-14 19:00N 40°39' W 074°07'1 1.1
2017-Sep-14 18:30N 40°39' W 074°07'0 0.0
2017-Sep-14 18:00N 40°39' W 074°07'0 0.0
2017-Sep-14 17:30N 40°39' W 074°07'0 0.0
2017-Sep-14 17:00N 40°39' W 074°07'0 0.0
2017-Sep-14 16:30N 40°39' W 074°07'0 0.0
2017-Sep-14 16:00N 40°39' W 074°07'0 0.0
2017-Sep-14 15:30N 40°39' W 074°07'0 0.0
2017-Sep-14 15:00N 40°39' W 074°07'0 0.0
2017-Sep-14 14:26N 40°39' W 074°07'0 0.0
2017-Sep-14 13:57N 40°39' W 074°07'0 0.0
2017-Sep-14 13:30N 40°39' W 074°07'0 0.0
2017-Sep-14 13:00N 40°39' W 074°07'0 0.0
2017-Sep-14 12:30N 40°39' W 074°07'0 0.0
2017-Sep-14 12:00N 40°39' W 074°07'0 0.0
2017-Sep-14 11:30N 40°39' W 074°07'0 0.0
2017-Sep-14 10:59N 40°39' W 074°07'0 0.0
2017-Sep-14 10:30N 40°39' W 074°07'0 0.0
2017-Sep-14 10:01N 40°39' W 074°07'0 0.0
2017-Sep-14 09:30N 40°39' W 074°07'0 0.0
2017-Sep-14 08:59N 40°39' W 074°07'0 0.0
2017-Sep-14 08:30N 40°39' W 074°07'0 0.0
2017-Sep-14 08:00N 40°39' W 074°07'1 1.1
2017-Sep-14 07:30N 40°39' W 074°07'0 0.0
2017-Sep-14 07:00N 40°39' W 074°07'2 4.5
2017-Sep-14 06:30N 40°39' W 074°04'0 0.5
2017-Sep-14 06:00N 40°38' W 074°04'0 0.2
2017-Sep-14 05:30N 40°38' W 074°04'1 2.5
2017-Sep-14 05:00N 40°39' W 074°05'3 5.4
2017-Sep-14 04:30N 40°39' W 074°09'3 5.5
2017-Sep-14 04:00N 40°37' W 074°12'2 3.3
2017-Sep-14 03:22N 40°35' W 074°13'0 0.0
2017-Sep-14 02:53N 40°35' W 074°13'1 0.3
2017-Sep-14 00:29N 40°36' W 074°12'4 7.4
2017-Sep-14 00:00N 40°39' W 074°10'5 9.4
2017-Sep-13 23:30N 40°39' W 074°03'611.6
2017-Sep-13 23:00N 40°43' W 073°58'1 1.1
2017-Sep-13 22:30N 40°43' W 073°58'1 2.9
2017-Sep-13 22:00N 40°42' W 073°60'3 5.1
2017-Sep-13 21:30N 40°40' W 074°02'4 8.2
2017-Sep-13 21:00N 40°39' W 074°07'0 0.0
2017-Sep-13 20:18N 40°39' W 074°07'0 0.0
2017-Sep-13 18:16N 40°39' W 074°07'0 0.0
2017-Sep-13 17:46N 40°39' W 074°07'0 0.0
2017-Sep-13 17:04N 40°39' W 074°07'0 0.0
2017-Sep-13 17:00N 40°39' W 074°07'0 0.0
2017-Sep-13 16:28N 40°39' W 074°07'0 0.0
2017-Sep-13 15:59N 40°39' W 074°07'2 3.6
2017-Sep-13 15:30N 40°39' W 074°09'4 7.3
2017-Sep-13 15:00N 40°36' W 074°12'1 1.2
2017-Sep-13 14:29N 40°35' W 074°13'1 1.6
2017-Sep-13 13:48N 40°36' W 074°12'1 3.5
2017-Sep-13 13:30N 40°37' W 074°12'2 3.4
2017-Sep-13 13:00N 40°39' W 074°11'4 8.1
2017-Sep-13 12:30N 40°39' W 074°06'3 6.0
2017-Sep-13 12:00N 40°40' W 074°02'0 0.0
2017-Sep-13 11:30N 40°40' W 074°02'0 0.0
2017-Sep-13 11:00N 40°40' W 074°02'0 0.0
2017-Sep-13 10:30N 40°40' W 074°02'0 0.0
2017-Sep-13 10:00N 40°40' W 074°02'0 0.0
2017-Sep-13 09:30N 40°40' W 074°02'0 0.0
2017-Sep-13 09:00N 40°40' W 074°02'0 0.0
2017-Sep-13 08:30N 40°40' W 074°02'0 0.1
2017-Sep-13 08:00N 40°40' W 074°02'0 0.1
2017-Sep-13 07:30N 40°40' W 074°02'0 0.0
2017-Sep-13 07:00N 40°40' W 074°02'0 0.0
2017-Sep-13 06:30N 40°40' W 074°02'0 0.0
2017-Sep-13 06:00N 40°40' W 074°02'0 0.0
2017-Sep-13 05:30N 40°40' W 074°02'0 0.0
2017-Sep-13 05:00N 40°40' W 074°02'0 0.1
2017-Sep-13 04:31N 40°40' W 074°02'0 0.0
2017-Sep-13 04:00N 40°40' W 074°02'0 0.0
2017-Sep-13 03:30N 40°40' W 074°02'0 0.0
2017-Sep-13 03:00N 40°40' W 074°02'0 0.0
2017-Sep-13 02:30N 40°40' W 074°02'0 0.1
2017-Sep-13 02:00N 40°40' W 074°02'0 0.0
2017-Sep-13 01:30N 40°40' W 074°02'0 0.0
2017-Sep-13 01:00N 40°40' W 074°02'0 0.0
2017-Sep-13 00:30N 40°40' W 074°02'0 0.0
2017-Sep-13 00:00N 40°40' W 074°02'0 0.0
2017-Sep-12 23:30N 40°40' W 074°02'2 3.5
2017-Sep-12 23:00N 40°41' W 074°01'0 0.5
2017-Sep-12 22:30N 40°41' W 074°00'2 4.0
2017-Sep-12 22:00N 40°40' W 074°02'0 0.0
2017-Sep-12 21:30N 40°40' W 074°02'0 0.0
2017-Sep-12 21:00N 40°40' W 074°02'0 0.0
2017-Sep-12 20:30N 40°40' W 074°02'0 0.0
2017-Sep-12 20:00N 40°40' W 074°02'0 0.1
2017-Sep-12 19:30N 40°40' W 074°02'0 0.0
2017-Sep-12 19:00N 40°40' W 074°02'0 0.0
2017-Sep-12 18:30N 40°40' W 074°02'0 0.0
2017-Sep-12 18:00N 40°40' W 074°02'0 0.0
2017-Sep-12 17:30N 40°40' W 074°02'0 0.0
2017-Sep-12 17:00N 40°40' W 074°02'0 0.0
2017-Sep-12 16:30N 40°40' W 074°02'0 0.0
2017-Sep-12 16:00N 40°40' W 074°02'0 0.0
2017-Sep-12 15:30N 40°40' W 074°02'0 0.1
2017-Sep-12 15:00N 40°40' W 074°02'0 0.1
2017-Sep-12 14:30N 40°40' W 074°02'0 0.0
2017-Sep-12 14:00N 40°40' W 074°02'0 0.0
2017-Sep-12 13:30N 40°40' W 074°02'0 0.0
2017-Sep-12 13:00N 40°40' W 074°02'0 0.0
2017-Sep-12 12:30N 40°40' W 074°02'0 0.0
2017-Sep-12 12:00N 40°40' W 074°02'0 0.0
2017-Sep-12 11:30N 40°40' W 074°02'0 0.1
2017-Sep-12 11:00N 40°40' W 074°02'4 7.9
2017-Sep-12 10:30N 40°39' W 074°07'4 8.3
2017-Sep-12 10:00N 40°37' W 074°12'4 7.6
2017-Sep-12 09:27N 40°33' W 074°14'1 2.2
2017-Sep-12 09:00N 40°33' W 074°15'0 0.0
2017-Sep-12 07:58N 40°33' W 074°15'4 6.9
2017-Sep-12 07:22N 40°36' W 074°12'3 7.2
2017-Sep-12 07:00N 40°39' W 074°11'4 8.4
2017-Sep-12 06:30N 40°39' W 074°06'3 6.1
2017-Sep-12 06:00N 40°40' W 074°02'0 0.0
2017-Sep-12 05:30N 40°40' W 074°02'0 0.0
2017-Sep-12 05:00N 40°40' W 074°02'0 0.0
2017-Sep-12 04:30N 40°40' W 074°02'0 0.0
2017-Sep-12 04:00N 40°40' W 074°02'0 0.0
2017-Sep-12 03:30N 40°40' W 074°02'0 0.0
2017-Sep-12 03:00N 40°40' W 074°02'0 0.0
2017-Sep-12 02:30N 40°40' W 074°02'0 0.0
2017-Sep-12 02:00N 40°40' W 074°02'1 2.4
2017-Sep-12 01:30N 40°41' W 074°01'4 8.1
2017-Sep-12 01:01N 40°44' W 073°58'2 4.4
2017-Sep-12 00:29N 40°46' W 073°57'4 8.7
2017-Sep-12 00:00N 40°43' W 073°59'4 8.5
2017-Sep-11 23:30N 40°40' W 074°03'3 5.7
2017-Sep-11 23:00N 40°39' W 074°07'0 0.1
2017-Sep-11 22:31N 40°39' W 074°07'4 7.1
2017-Sep-11 22:00N 40°40' W 074°02'0 0.0
2017-Sep-11 21:30N 40°40' W 074°02'0 0.0
2017-Sep-11 20:30N 40°40' W 074°02'0 0.0
2017-Sep-11 20:00N 40°40' W 074°02'0 0.0
2017-Sep-11 19:30N 40°40' W 074°02'0 0.0
2017-Sep-11 19:00N 40°40' W 074°02'0 0.1
2017-Sep-11 18:30N 40°40' W 074°02'0 0.1
2017-Sep-11 18:00N 40°40' W 074°02'0 0.0
2017-Sep-11 17:30N 40°40' W 074°02'0 0.0
2017-Sep-11 17:00N 40°40' W 074°02'0 0.0
2017-Sep-11 16:30N 40°40' W 074°02'0 0.0
2017-Sep-11 16:00N 40°40' W 074°02'0 0.0
2017-Sep-11 15:30N 40°40' W 074°02'0 0.0
2017-Sep-11 15:00N 40°40' W 074°02'0 0.0
2017-Sep-11 14:30N 40°40' W 074°02'0 0.0
2017-Sep-11 14:00N 40°40' W 074°02'0 0.1
2017-Sep-11 13:30N 40°40' W 074°02'0 0.0
2017-Sep-11 13:00N 40°40' W 074°02'0 0.0
2017-Sep-11 12:30N 40°40' W 074°02'0 0.0
2017-Sep-11 12:00N 40°40' W 074°02'0 0.0
2017-Sep-11 11:30N 40°40' W 074°02'0 0.0
2017-Sep-11 11:00N 40°40' W 074°02'0 0.0
2017-Sep-11 10:30N 40°40' W 074°02'0 0.0
2017-Sep-11 10:00N 40°40' W 074°02'0 0.0
2017-Sep-11 09:30N 40°40' W 074°02'0 0.0
2017-Sep-11 09:00N 40°40' W 074°02'0 0.0
2017-Sep-11 08:30N 40°40' W 074°02'0 0.0
2017-Sep-11 08:00N 40°40' W 074°02'0 0.0
2017-Sep-11 07:30N 40°40' W 074°02'0 0.0
2017-Sep-11 07:00N 40°40' W 074°02'0 0.0
2017-Sep-11 06:30N 40°40' W 074°02'0 0.0
2017-Sep-11 06:00N 40°40' W 074°02'0 0.0
2017-Sep-11 05:30N 40°40' W 074°02'0 0.0
2017-Sep-11 05:00N 40°40' W 074°02'0 0.1
2017-Sep-11 04:30N 40°40' W 074°02'0 0.0
2017-Sep-11 04:00N 40°40' W 074°02'0 0.0
2017-Sep-11 03:30N 40°40' W 074°02'0 0.0
2017-Sep-11 03:00N 40°40' W 074°02'0 0.0
2017-Sep-11 02:30N 40°40' W 074°02'0 0.0
2017-Sep-11 02:00N 40°40' W 074°02'0 0.1
2017-Sep-11 01:30N 40°40' W 074°02'0 0.0
2017-Sep-11 01:00N 40°40' W 074°02'0 0.0
2017-Sep-11 00:30N 40°40' W 074°02'0 0.0
2017-Sep-11 00:00N 40°40' W 074°02'0 0.0
2017-Sep-10 23:30N 40°40' W 074°02'0 0.0
2017-Sep-10 23:00N 40°40' W 074°02'0 0.0
2017-Sep-10 22:30N 40°40' W 074°02'0 0.0
2017-Sep-10 22:00N 40°40' W 074°02'0 0.0
2017-Sep-10 21:30N 40°40' W 074°02'0 0.0
2017-Sep-10 21:00N 40°40' W 074°02'0 0.0
2017-Sep-10 20:30N 40°40' W 074°02'0 0.0
2017-Sep-10 20:00N 40°40' W 074°02'0 0.0
2017-Sep-10 19:30N 40°40' W 074°02'0 0.0
2017-Sep-10 19:00N 40°40' W 074°02'0 0.0
2017-Sep-10 18:30N 40°40' W 074°02'0 0.0
2017-Sep-10 18:00N 40°40' W 074°02'0 0.0
2017-Sep-10 17:30N 40°40' W 074°02'0 0.0
2017-Sep-10 17:00N 40°40' W 074°02'0 0.0
2017-Sep-10 16:30N 40°40' W 074°02'0 0.1
2017-Sep-10 16:00N 40°40' W 074°02'0 0.1
2017-Sep-10 15:31N 40°40' W 074°02'2 4.3
2017-Sep-10 15:00N 40°39' W 074°05'2 2.2
2017-Sep-10 14:00N 40°40' W 074°02'0 0.0
2017-Sep-10 13:30N 40°40' W 074°02'0 0.0
2017-Sep-10 13:00N 40°40' W 074°02'0 0.0
2017-Sep-10 12:30N 40°40' W 074°02'0 0.0
2017-Sep-10 12:00N 40°40' W 074°02'0 0.0
2017-Sep-10 11:30N 40°40' W 074°02'0 0.0
2017-Sep-10 11:00N 40°40' W 074°02'0 0.0
2017-Sep-10 10:30N 40°40' W 074°02'0 0.0
2017-Sep-10 10:00N 40°40' W 074°02'0 0.0
2017-Sep-10 09:30N 40°40' W 074°02'0 0.0
2017-Sep-10 09:00N 40°40' W 074°02'0 0.0
2017-Sep-10 08:30N 40°40' W 074°02'0 0.0
2017-Sep-10 08:00N 40°40' W 074°02'0 0.0
2017-Sep-10 07:30N 40°40' W 074°02'0 0.0
2017-Sep-10 07:00N 40°40' W 074°02'0 0.0
2017-Sep-10 06:30N 40°40' W 074°02'0 0.0
2017-Sep-10 06:00N 40°40' W 074°02'0 0.0
2017-Sep-10 05:30N 40°40' W 074°02'0 0.0
2017-Sep-10 05:00N 40°40' W 074°02'0 0.0
2017-Sep-10 04:30N 40°40' W 074°02'0 0.0
2017-Sep-10 04:00N 40°40' W 074°02'0 0.1
2017-Sep-10 03:30N 40°40' W 074°02'0 0.0
2017-Sep-10 03:00N 40°40' W 074°02'0 0.0
2017-Sep-10 02:30N 40°40' W 074°02'0 0.0
2017-Sep-10 02:00N 40°40' W 074°02'0 0.0
2017-Sep-10 01:30N 40°40' W 074°02'0 0.0
2017-Sep-10 01:00N 40°40' W 074°02'0 0.0
2017-Sep-10 00:30N 40°40' W 074°02'0 0.0
2017-Sep-10 00:00N 40°40' W 074°02'0 0.0
2017-Sep-09 23:30N 40°40' W 074°02'0 0.0
2017-Sep-09 23:00N 40°40' W 074°02'0 0.0
2017-Sep-09 22:30N 40°40' W 074°02'0 0.0
2017-Sep-09 22:00N 40°40' W 074°02'0 0.0
2017-Sep-09 21:30N 40°40' W 074°02'0 0.0
2017-Sep-09 21:00N 40°40' W 074°02'0 0.0
2017-Sep-09 20:30N 40°40' W 074°02'  

Dump ship's entire track history